Time;durP1;ratioP1;P1;durP2;ratioP2;P2;SDS_P1;SDS_P2;PMS_P1;PMS_P2;Temp;Humidity;BMP_temperature;BMP_pressure;BME280_temperature;BME280_humidity;BME280_pressure;Samples;Min_cycle;Max_cycle;Signal;HPM_P1;HPM_P2
2022/09/14 00:00:55;;;;;;;2.30;0.70;;;;;;;15.88;60.42;100567.75;4930220;28;96664;-47
2022/09/14 00:03:21;;;;;;;3.20;0.90;;;;;;;15.86;60.40;100569.59;4942780;28;96877;-48
2022/09/14 00:05:46;;;;;;;3.60;0.80;;;;;;;15.85;60.40;100570.84;4936214;28;97205;-47
2022/09/14 00:08:12;;;;;;;3.27;1.30;;;;;;;15.84;60.42;100570.09;4941121;28;97803;-47
2022/09/14 00:10:42;;;;;;;3.87;1.10;;;;;;;15.83;60.50;100576.19;4931091;28;97233;-48
2022/09/14 00:13:08;;;;;;;2.30;1.03;;;;;;;15.80;60.37;100566.13;4936549;28;97426;-47
2022/09/14 00:15:36;;;;;;;1.60;0.97;;;;;;;15.77;60.32;100561.69;4944238;28;97134;-47
2022/09/14 00:18:01;;;;;;;4.67;0.77;;;;;;;15.74;60.39;100561.47;4946138;28;99059;-47
2022/09/14 00:20:27;;;;;;;3.50;1.00;;;;;;;15.72;60.47;100566.03;4938146;28;97424;-47
2022/09/14 00:22:52;;;;;;;3.43;0.93;;;;;;;15.71;60.58;100564.53;4948808;28;97307;-47
2022/09/14 00:25:17;;;;;;;2.27;1.00;;;;;;;15.71;60.62;100561.75;4948228;28;104336;-47
2022/09/14 00:27:43;;;;;;;1.10;1.00;;;;;;;15.70;60.48;100563.78;4944816;28;118275;-47
2022/09/14 00:30:09;;;;;;;3.60;1.10;;;;;;;15.68;60.53;100571.88;4932268;28;118936;-47
2022/09/14 00:32:34;;;;;;;1.77;1.00;;;;;;;15.67;60.45;100562.06;4934043;28;97177;-47
2022/09/14 00:34:59;;;;;;;4.80;1.20;;;;;;;15.65;60.59;100566.66;4930084;28;97175;-46
2022/09/14 00:37:25;;;;;;;2.50;0.90;;;;;;;15.64;60.55;100565.91;4928358;28;97069;-50
2022/09/14 00:39:50;;;;;;;6.53;1.03;;;;;;;15.63;60.55;100560.88;4935743;28;104557;-48
2022/09/14 00:42:18;;;;;;;2.30;0.80;;;;;;;15.60;60.55;100551.59;4935455;28;97061;-47
2022/09/14 00:44:46;;;;;;;2.10;0.70;;;;;;;15.59;60.46;100547.34;4949274;28;96727;-48
2022/09/14 00:47:14;;;;;;;3.17;1.00;;;;;;;15.53;60.42;100535.56;4940877;28;97646;-48
2022/09/14 00:49:42;;;;;;;3.60;1.07;;;;;;;15.51;60.58;100534.59;4946292;28;96920;-47
2022/09/14 00:52:16;;;;;;;2.70;1.10;;;;;;;15.49;60.79;100548.25;4946387;28;97119;-47
2022/09/14 00:54:54;;;;;;;1.33;0.93;;;;;;;15.48;60.97;100544.00;4944318;28;96996;-47
2022/09/14 00:57:22;;;;;;;2.40;0.93;;;;;;;15.47;60.54;100545.25;4935268;28;102074;-47
2022/09/14 00:59:50;;;;;;;1.57;1.10;;;;;;;15.45;60.67;100539.50;4942309;28;97623;-47
2022/09/14 01:02:17;;;;;;;2.23;1.20;;;;;;;15.44;60.58;100535.97;4937682;28;96762;-47
2022/09/14 01:04:42;;;;;;;3.53;1.10;;;;;;;15.41;60.72;100547.34;4944768;28;97059;-47
2022/09/14 01:07:08;;;;;;;2.07;0.97;;;;;;;15.39;60.95;100547.88;4936496;28;98248;-47
2022/09/14 01:09:51;;;;;;;5.80;1.33;;;;;;;15.39;60.93;100544.34;4944789;28;97428;-48
2022/09/14 01:12:38;;;;;;;0.90;0.70;;;;;;;15.38;60.96;100542.84;4930875;28;96653;-48
2022/09/14 01:15:16;;;;;;;1.40;0.83;;;;;;;15.35;60.91;100541.16;4941394;28;97163;-48
2022/09/14 01:17:47;;;;;;;1.00;0.90;;;;;;;15.33;60.85;100536.13;4933605;28;97362;-49
2022/09/14 01:20:33;;;;;;;2.87;0.90;;;;;;;15.33;60.84;100538.16;4930989;28;97811;-48
2022/09/14 01:23:31;;;;;;;0.93;0.90;;;;;;;15.30;60.67;100530.88;4943474;28;96856;-48
2022/09/14 01:26:20;;;;;;;2.83;1.00;;;;;;;15.24;61.08;100522.69;4935682;28;97195;-48
2022/09/14 01:29:05;;;;;;;4.23;1.40;;;;;;;15.22;61.20;100530.78;4934153;28;103048;-49
2022/09/14 01:31:36;;;;;;;2.17;0.70;;;;;;;15.20;60.84;100529.78;4939199;28;97390;-48
2022/09/14 01:34:15;;;;;;;1.17;0.80;;;;;;;15.21;61.09;100528.50;4947477;28;97409;-48
2022/09/14 01:36:46;;;;;;;2.30;1.00;;;;;;;15.20;60.95;100532.56;4941784;28;96852;-48
2022/09/14 01:39:15;;;;;;;2.57;1.07;;;;;;;15.18;60.94;100529.56;4939196;28;99522;-46
2022/09/14 01:41:41;;;;;;;3.50;1.17;;;;;;;15.18;61.01;100532.34;4943991;28;97217;-46
2022/09/14 01:44:34;;;;;;;2.30;0.80;;;;;;;15.17;61.56;100539.16;4933754;28;97727;-47
2022/09/14 01:47:25;;;;;;;1.80;0.70;;;;;;;15.16;61.48;100541.16;4946640;28;97000;-47
2022/09/14 01:50:01;;;;;;;1.00;0.70;;;;;;;15.18;61.21;100554.53;4946012;28;101746;-48
2022/09/14 01:52:36;;;;;;;1.83;0.90;;;;;;;15.18;61.16;100541.38;4946766;28;96994;-47
2022/09/14 01:55:10;;;;;;;1.37;0.90;;;;;;;15.16;61.04;100537.66;4943602;28;97345;-47
2022/09/14 01:57:38;;;;;;;4.67;1.27;;;;;;;15.13;61.14;100533.16;4946346;28;96908;-47
2022/09/14 02:00:10;;;;;;;3.73;0.87;;;;;;;15.12;61.30;100532.41;4944175;28;96943;-47
2022/09/14 02:02:57;;;;;;;2.57;0.90;;;;;;;15.09;61.34;100533.50;4949545;28;98821;-46
2022/09/14 02:05:50;;;;;;;1.67;1.00;;;;;;;15.07;61.53;100532.50;4943107;28;97038;-48
2022/09/14 02:08:15;;;;;;;2.07;0.90;;;;;;;15.06;61.10;100522.69;4942795;28;97161;-46
2022/09/14 02:10:40;;;;;;;2.80;0.80;;;;;;;15.03;61.05;100530.78;4928068;28;97144;-47
2022/09/14 02:13:07;;;;;;;3.03;1.07;;;;;;;15.00;61.10;100520.75;4935328;28;98669;-48
2022/09/14 02:15:34;;;;;;;0.97;0.83;;;;;;;14.98;61.04;100528.84;4942555;28;97097;-47
2022/09/14 02:18:00;;;;;;;2.53;0.73;;;;;;;14.94;60.82;100522.09;4949740;28;96915;-48
2022/09/14 02:20:41;;;;;;;1.90;1.10;;;;;;;14.88;61.07;100524.19;4945033;28;97423;-48
2022/09/14 02:23:06;;;;;;;0.90;0.63;;;;;;;14.82;61.08;100524.28;4929871;28;101672;-48
2022/09/14 02:25:32;;;;;;;3.13;0.93;;;;;;;14.80;60.89;100518.53;4938257;28;97298;-48
2022/09/14 02:27:57;;;;;;;2.70;0.90;;;;;;;14.75;61.23;100516.56;4939666;28;97406;-47
2022/09/14 02:30:23;;;;;;;2.93;0.90;;;;;;;14.66;60.98;100511.41;4932445;28;97598;-48
2022/09/14 02:33:02;;;;;;;2.40;0.70;;;;;;;14.64;61.26;100502.88;4930454;28;97190;-48
2022/09/14 02:35:36;;;;;;;4.07;1.30;;;;;;;14.63;61.43;100503.41;4948626;28;96959;-48
2022/09/14 02:38:14;;;;;;;1.60;0.90;;;;;;;14.61;61.03;100503.19;4940853;28;96833;-48
2022/09/14 02:40:50;;;;;;;2.10;0.90;;;;;;;14.57;61.20;100497.22;4937991;28;99290;-48
2022/09/14 02:43:22;;;;;;;0.73;0.73;;;;;;;14.55;61.17;100486.63;4943244;28;101699;-48
2022/09/14 02:45:50;;;;;;;2.70;0.97;;;;;;;14.53;61.20;100485.66;4938552;28;96714;-48
2022/09/14 02:48:42;;;;;;;1.77;0.70;;;;;;;14.51;61.49;100480.66;4943012;28;97140;-48
2022/09/14 02:51:20;;;;;;;2.20;1.00;;;;;;;14.50;61.48;100484.72;4944887;28;100704;-48
2022/09/14 02:53:53;;;;;;;2.10;0.80;;;;;;;14.49;61.41;100487.97;4945905;28;96759;-48
2022/09/14 02:56:19;;;;;;;0.90;0.63;;;;;;;14.48;61.36;100498.31;4945715;28;97155;-47
2022/09/14 02:58:45;;;;;;;0.97;0.87;;;;;;;14.48;61.45;100501.06;4946191;28;96999;-46
2022/09/14 03:01:17;;;;;;;1.27;0.80;;;;;;;14.47;61.50;100494.06;4942113;28;97094;-49
2022/09/14 03:03:42;;;;;;;8.10;1.40;;;;;;;14.46;61.34;100489.03;4930041;28;96753;-48
2022/09/14 03:06:07;;;;;;;1.67;0.80;;;;;;;14.45;61.32;100493.06;4935932;28;97274;-48
2022/09/14 03:08:34;;;;;;;1.10;0.67;;;;;;;14.43;61.33;100492.84;4931810;28;100871;-48
2022/09/14 03:10:59;;;;;;;1.70;1.10;;;;;;;14.41;61.27;100482.31;4932134;28;97942;-47
2022/09/14 03:13:24;;;;;;;1.87;0.87;;;;;;;14.38;61.29;100488.88;4933851;28;96709;-48
2022/09/14 03:15:50;;;;;;;5.90;0.97;;;;;;;14.37;61.39;100492.19;4931276;28;97370;-47
2022/09/14 03:18:15;;;;;;;0.80;0.80;;;;;;;14.35;61.41;100491.94;4924528;28;96904;-48
2022/09/14 03:20:41;;;;;;;3.23;1.03;;;;;;;14.34;61.35;100484.91;4933960;28;97239;-48
2022/09/14 03:23:08;;;;;;;0.90;0.80;;;;;;;14.32;61.27;100484.69;4937798;28;97071;-48
2022/09/14 03:25:43;;;;;;;1.57;1.23;;;;;;;14.31;61.49;100475.63;4939218;28;97364;-48
2022/09/14 03:28:10;;;;;;;2.60;0.80;;;;;;;14.27;61.24;100473.13;4933391;28;97290;-48
2022/09/14 03:30:36;;;;;;;1.40;0.80;;;;;;;14.24;61.01;100474.16;4942232;28;97392;-50
2022/09/14 03:33:02;;;;;;;1.03;0.90;;;;;;;14.10;61.00;100469.81;4943060;28;97631;-48
2022/09/14 03:35:30;;;;;;;1.73;1.00;;;;;;;13.96;61.28;100470.97;4947265;28;97143;-48
2022/09/14 03:37:56;;;;;;;1.37;0.93;;;;;;;13.89;61.58;100471.56;4932741;28;97067;-47
2022/09/14 03:40:22;;;;;;;3.00;0.97;;;;;;;13.90;61.65;100475.06;4939439;28;98688;-48
2022/09/14 03:42:49;;;;;;;0.90;0.80;;;;;;;13.91;61.63;100471.78;4922416;28;97129;-47
2022/09/14 03:45:16;;;;;;;0.90;0.90;;;;;;;13.94;61.60;100467.22;4922232;28;96900;-48
2022/09/14 03:47:42;;;;;;;0.83;0.70;;;;;;;13.94;61.48;100462.47;4938418;28;98266;-48
2022/09/14 03:50:09;;;;;;;2.47;1.10;;;;;;;13.90;61.36;100467.53;4942456;28;98722;-48
2022/09/14 03:52:35;;;;;;;1.33;1.17;;;;;;;13.79;61.34;100453.81;4945918;28;97515;-48
2022/09/14 03:55:02;;;;;;;1.83;0.83;;;;;;;13.74;61.53;100451.13;4934242;28;96850;-48
2022/09/14 03:57:27;;;;;;;2.63;1.17;;;;;;;13.73;61.45;100447.63;4949268;28;97547;-48
2022/09/14 03:59:52;;;;;;;1.10;1.07;;;;;;;13.70;61.49;100451.41;4946310;28;98491;-47
2022/09/14 04:02:18;;;;;;;1.77;1.20;;;;;;;13.72;61.50;100445.34;4942568;28;110378;-47
2022/09/14 04:04:43;;;;;;;4.20;1.37;;;;;;;13.71;61.45;100433.56;4939468;28;97309;-49
2022/09/14 04:07:09;;;;;;;1.50;1.00;;;;;;;13.70;61.47;100431.28;4953276;28;104343;-47
2022/09/14 04:09:34;;;;;;;1.77;1.00;;;;;;;13.69;61.40;100438.09;4934060;28;113175;-53
2022/09/14 04:11:59;;;;;;;1.80;0.83;;;;;;;13.67;61.60;100443.41;4934498;28;113078;-48
2022/09/14 04:14:25;;;;;;;3.53;1.10;;;;;;;13.67;61.67;100446.94;4947506;28;97180;-48
2022/09/14 04:16:51;;;;;;;2.93;0.90;;;;;;;13.67;61.63;100449.69;4947704;28;96970;-48
2022/09/14 04:19:16;;;;;;;2.70;1.20;;;;;;;13.66;61.49;100452.97;4935299;28;98630;-48
2022/09/14 04:21:41;;;;;;;1.10;1.00;;;;;;;13.63;61.51;100456.78;4939926;28;97098;-48
2022/09/14 04:24:12;;;;;;;1.77;1.20;;;;;;;13.61;61.62;100457.28;4943082;28;97107;-48
2022/09/14 04:26:37;;;;;;;1.67;1.20;;;;;;;13.61;61.53;100453.78;4938954;28;96825;-48
2022/09/14 04:29:03;;;;;;;1.80;1.13;;;;;;;13.61;61.49;100454.50;4931751;28;98646;-48
2022/09/14 04:31:30;;;;;;;1.83;1.10;;;;;;;13.58;61.55;100449.28;4933627;28;97230;-48
2022/09/14 04:33:55;;;;;;;2.23;0.80;;;;;;;13.49;60.92;100456.66;4941280;28;96980;-52
2022/09/14 04:36:22;;;;;;;1.80;1.20;;;;;;;13.41;61.55;100444.66;4928609;28;96917;-47
2022/09/14 04:38:52;;;;;;;2.43;1.00;;;;;;;13.40;61.42;100445.19;4930324;28;97868;-48
2022/09/14 04:41:19;;;;;;;2.30;1.00;;;;;;;13.33;61.50;100448.50;4948114;28;97357;-48
2022/09/14 04:43:46;;;;;;;1.20;1.10;;;;;;;13.23;61.54;100442.56;4936635;28;96888;-48
2022/09/14 04:46:14;;;;;;;1.43;0.97;;;;;;;13.22;61.75;100451.34;4945600;28;96716;-48
2022/09/14 04:48:39;;;;;;;3.23;1.20;;;;;;;13.22;61.92;100445.84;4936608;28;96861;-47
2022/09/14 04:51:09;;;;;;;1.80;1.40;;;;;;;13.24;61.78;100455.09;4945998;28;103080;-46
2022/09/14 04:53:36;;;;;;;2.37;0.77;;;;;;;13.28;61.88;100457.59;4936265;28;97314;-48
2022/09/14 04:56:06;;;;;;;1.40;1.00;;;;;;;13.28;61.56;100463.13;4934349;28;96761;-48
2022/09/14 04:58:32;;;;;;;2.80;1.40;;;;;;;13.23;61.75;100461.91;4944107;28;97460;-49
2022/09/14 05:01:05;;;;;;;3.07;1.13;;;;;;;13.23;61.81;100456.38;4918970;28;97382;-48
2022/09/14 05:03:30;;;;;;;0.90;0.80;;;;;;;13.22;61.62;100459.66;4941542;28;97059;-47
2022/09/14 05:06:04;;;;;;;5.17;0.93;;;;;;;13.23;61.78;100461.91;4932396;28;97239;-48
2022/09/14 05:08:29;;;;;;;1.60;1.30;;;;;;;13.26;61.63;100460.09;4923472;28;97393;-49
2022/09/14 05:10:56;;;;;;;3.13;0.70;;;;;;;13.27;61.59;100456.84;4936891;28;98065;-48
2022/09/14 05:13:22;;;;;;;1.63;1.07;;;;;;;13.28;61.50;100458.34;4936280;28;97379;-48
2022/09/14 05:15:48;;;;;;;0.73;0.67;;;;;;;13.29;61.60;100459.84;4950695;28;96781;-48
2022/09/14 05:18:13;;;;;;;0.90;0.63;;;;;;;13.30;61.55;100449.53;4944499;28;97353;-48
2022/09/14 05:20:38;;;;;;;1.87;0.77;;;;;;;13.32;61.79;100458.06;4930607;28;118934;-48
2022/09/14 05:23:03;;;;;;;2.57;0.67;;;;;;;13.36;61.57;100451.00;4927492;28;96950;-48
2022/09/14 05:25:29;;;;;;;1.53;0.97;;;;;;;13.38;61.50;100456.75;4932412;28;97312;-48
2022/09/14 05:27:55;;;;;;;2.67;1.13;;;;;;;13.37;61.61;100460.78;4942705;28;97619;-48
2022/09/14 05:30:20;;;;;;;1.43;1.00;;;;;;;13.38;61.74;100451.22;4942172;28;97199;-47
2022/09/14 05:32:45;;;;;;;2.70;0.83;;;;;;;13.41;61.64;100449.44;4942935;28;104647;-49
2022/09/14 05:35:11;;;;;;;3.60;0.80;;;;;;;13.45;61.63;100445.09;4926833;28;103817;-48
2022/09/14 05:37:36;;;;;;;1.20;0.80;;;;;;;13.49;61.66;100445.59;4925935;28;97343;-48
2022/09/14 05:40:02;;;;;;;1.00;0.90;;;;;;;13.52;61.68;100452.09;4948659;28;97086;-48
2022/09/14 05:42:27;;;;;;;1.07;0.70;;;;;;;13.54;61.51;100447.53;4946740;28;96711;-49
2022/09/14 05:44:52;;;;;;;0.93;0.77;;;;;;;13.56;61.50;100446.28;4939666;28;96850;-47
2022/09/14 05:47:18;;;;;;;4.40;0.73;;;;;;;13.58;61.67;100454.81;4943754;28;112357;-48
2022/09/14 05:49:43;;;;;;;1.27;0.60;;;;;;;13.61;61.88;100451.03;4948174;28;97114;-48
2022/09/14 05:52:08;;;;;;;1.10;0.87;;;;;;;13.62;61.66;100442.19;4944155;28;102209;-48
2022/09/14 05:54:34;;;;;;;1.10;0.90;;;;;;;13.64;61.78;100438.91;4945093;28;97185;-48
2022/09/14 05:56:59;;;;;;;1.40;0.90;;;;;;;13.66;61.92;100431.59;4932473;28;115151;-48
2022/09/14 05:59:24;;;;;;;1.87;0.70;;;;;;;13.71;62.08;100438.34;4934901;28;97320;-48
2022/09/14 06:01:50;;;;;;;4.20;1.00;;;;;;;13.74;61.83;100442.84;4941568;28;97779;-48
2022/09/14 06:04:15;;;;;;;1.53;0.87;;;;;;;13.79;62.10;100434.47;4945287;28;97065;-48
2022/09/14 06:06:40;;;;;;;0.60;0.60;;;;;;;13.85;61.90;100437.16;4930227;28;101230;-48
2022/09/14 06:09:05;;;;;;;1.33;0.80;;;;;;;13.91;61.98;100440.63;4935881;28;97375;-48
2022/09/14 06:11:35;;;;;;;2.43;1.00;;;;;;;13.97;61.84;100430.25;4942128;28;97016;-48
2022/09/14 06:14:00;;;;;;;0.80;0.70;;;;;;;13.99;61.69;100428.47;4947292;28;96862;-48
2022/09/14 06:16:27;;;;;;;1.30;1.00;;;;;;;13.98;61.98;100435.25;4941007;28;97491;-48
2022/09/14 06:18:54;;;;;;;0.60;0.60;;;;;;;14.02;62.01;100432.22;4934086;28;97058;-48
2022/09/14 06:21:21;;;;;;;1.73;1.00;;;;;;;14.08;61.94;100428.09;4937015;28;96860;-48
2022/09/14 06:23:48;;;;;;;0.80;0.67;;;;;;;14.12;62.06;100434.09;4943738;28;96758;-49
2022/09/14 06:26:14;;;;;;;1.00;0.67;;;;;;;14.15;62.05;100446.84;4944588;28;97380;-48
2022/09/14 06:28:40;;;;;;;0.90;0.90;;;;;;;14.22;62.01;100445.53;4933904;28;97216;-47
2022/09/14 06:31:06;;;;;;;4.63;0.77;;;;;;;14.26;62.25;100432.88;4927641;28;97037;-48
2022/09/14 06:33:33;;;;;;;1.10;1.00;;;;;;;14.33;62.17;100422.53;4939467;28;97101;-48
2022/09/14 06:36:01;;;;;;;0.70;0.63;;;;;;;14.38;62.06;100422.47;4925259;28;98774;-48
2022/09/14 06:38:27;;;;;;;1.40;0.77;;;;;;;14.41;62.25;100426.97;4941594;28;97459;-48
2022/09/14 06:40:58;;;;;;;2.03;0.70;;;;;;;14.46;62.39;100428.16;4943424;28;97018;-49
2022/09/14 06:43:25;;;;;;;5.60;1.27;;;;;;;14.48;62.35;100425.59;4935124;28;97121;-48
2022/09/14 06:45:58;;;;;;;0.70;0.70;;;;;;;14.51;62.67;100424.53;4941655;28;96843;-49
2022/09/14 06:48:23;;;;;;;0.77;0.77;;;;;;;14.57;62.37;100416.94;4941059;28;97222;-49
2022/09/14 06:50:48;;;;;;;0.93;0.70;;;;;;;14.61;62.55;100404.25;4933583;28;96870;-47
2022/09/14 06:53:14;;;;;;;1.40;0.77;;;;;;;14.67;62.44;100410.47;4934230;28;98958;-48
2022/09/14 06:55:39;;;;;;;1.00;0.77;;;;;;;14.73;62.47;100419.44;4934261;28;110172;-49
2022/09/14 06:58:06;;;;;;;2.77;1.07;;;;;;;14.81;62.55;100414.00;4926124;28;102219;-48
2022/09/14 07:00:31;;;;;;;1.30;1.00;;;;;;;14.88;62.56;100416.19;4939108;28;97330;-47
2022/09/14 07:02:57;;;;;;;2.73;1.00;;;;;;;14.96;62.63;100408.75;4928090;28;97117;-49
2022/09/14 07:05:22;;;;;;;1.37;1.27;;;;;;;15.06;62.49;100406.31;4932959;28;108652;-48
2022/09/14 07:07:52;;;;;;;1.23;0.97;;;;;;;15.17;62.72;100406.13;4926298;28;97066;-47
2022/09/14 07:10:17;;;;;;;2.67;0.90;;;;;;;15.27;62.59;100409.97;4935890;28;97333;-48
2022/09/14 07:12:43;;;;;;;2.00;1.70;;;;;;;15.37;62.74;100422.16;4932261;28;96997;-48
2022/09/14 07:15:09;;;;;;;6.87;1.53;;;;;;;15.48;62.71;100411.66;4951864;28;100575;-48
2022/09/14 07:17:35;;;;;;;3.37;1.57;;;;;;;15.61;62.74;100424.78;4938437;28;97139;-48
2022/09/14 07:20:02;;;;;;;1.43;1.37;;;;;;;15.72;62.64;100425.34;4938981;28;97108;-48
2022/09/14 07:22:27;;;;;;;2.10;1.43;;;;;;;15.83;62.62;100432.69;4949084;28;97259;-47
2022/09/14 07:24:53;;;;;;;2.20;1.70;;;;;;;15.94;62.46;100428.94;4947864;28;96945;-47
2022/09/14 07:27:18;;;;;;;2.13;1.83;;;;;;;16.02;62.56;100427.00;4947436;28;103679;-48
2022/09/14 07:29:43;;;;;;;2.83;1.80;;;;;;;16.10;62.22;100434.16;4949145;28;106812;-48
2022/09/14 07:32:09;;;;;;;2.03;1.90;;;;;;;16.17;62.51;100433.50;4945538;28;97156;-48
2022/09/14 07:34:34;;;;;;;2.10;2.00;;;;;;;16.26;62.50;100429.53;4941263;28;98139;-48
2022/09/14 07:36:59;;;;;;;3.70;2.23;;;;;;;16.33;62.50;100435.19;4936233;28;110652;-48
2022/09/14 07:39:25;;;;;;;4.10;2.13;;;;;;;16.44;62.37;100429.41;4926329;28;102435;-48
2022/09/14 07:41:50;;;;;;;2.37;2.13;;;;;;;16.57;62.38;100425.09;4933308;28;97108;-48
2022/09/14 07:44:16;;;;;;;2.83;2.47;;;;;;;16.68;62.39;100424.84;4950095;28;114636;-48
2022/09/14 07:46:44;;;;;;;2.70;1.77;;;;;;;16.82;62.33;100423.53;4943362;28;97529;-46
2022/09/14 07:49:10;;;;;;;3.43;2.07;;;;;;;16.94;62.27;100428.28;4945010;28;97238;-48
2022/09/14 07:51:36;;;;;;;2.03;1.93;;;;;;;17.05;62.26;100416.13;4931428;28;96876;-48
2022/09/14 07:54:04;;;;;;;2.67;1.90;;;;;;;17.17;62.11;100414.56;4941741;28;97552;-48
2022/09/14 07:56:29;;;;;;;2.60;1.83;;;;;;;17.29;62.16;100404.66;4944520;28;96864;-48
2022/09/14 07:58:57;;;;;;;3.07;1.73;;;;;;;17.41;62.04;100405.13;4948286;28;96993;-48
2022/09/14 08:01:23;;;;;;;4.23;1.87;;;;;;;17.49;62.07;100401.09;4936555;28;96841;-48
2022/09/14 08:03:49;;;;;;;3.63;1.57;;;;;;;17.53;62.04;100395.94;4940762;28;97724;-49
2022/09/14 08:06:23;;;;;;;4.70;1.50;;;;;;;17.60;62.16;100402.84;4934615;28;96798;-48
2022/09/14 08:08:51;;;;;;;1.87;1.73;;;;;;;17.69;62.04;100405.13;4936381;28;97378;-48
2022/09/14 08:11:22;;;;;;;3.10;1.50;;;;;;;17.75;62.05;100402.94;4944633;28;97222;-48
2022/09/14 08:13:56;;;;;;;1.17;1.10;;;;;;;17.84;61.98;100397.59;4931137;28;97077;-48
2022/09/14 08:16:23;;;;;;;7.03;1.70;;;;;;;17.90;61.90;100403.03;4949028;28;97850;-48
2022/09/14 08:18:56;;;;;;;1.67;1.57;;;;;;;17.91;61.95;100396.91;4937064;28;96847;-48
2022/09/14 08:21:22;;;;;;;1.77;1.27;;;;;;;17.95;61.74;100399.34;4926747;28;96866;-48
2022/09/14 08:23:47;;;;;;;6.73;1.80;;;;;;;18.04;61.82;100384.91;4931893;28;97644;-48
2022/09/14 08:26:16;;;;;;;5.47;1.73;;;;;;;18.13;61.94;100386.44;4936701;28;98438;-48
2022/09/14 08:28:42;;;;;;;3.00;1.40;;;;;;;18.17;61.88;100376.44;4933925;28;97217;-48
2022/09/14 08:31:20;;;;;;;3.47;1.37;;;;;;;18.23;61.85;100385.34;4919537;28;96904;-48
2022/09/14 08:33:49;;;;;;;1.93;1.10;;;;;;;18.28;61.85;100389.25;4934127;28;97319;-48
2022/09/14 08:36:18;;;;;;;1.30;1.20;;;;;;;18.34;61.82;100376.66;4925521;28;97263;-48
2022/09/14 08:38:44;;;;;;;1.43;1.30;;;;;;;18.40;61.87;100379.25;4939958;28;97003;-48
2022/09/14 08:41:33;;;;;;;1.10;1.10;;;;;;;18.48;62.03;100374.47;4950415;28;97079;-47
2022/09/14 08:44:09;;;;;;;1.23;1.10;;;;;;;18.54;62.08;100378.56;4927597;28;101864;-49
2022/09/14 08:46:43;;;;;;;3.00;1.40;;;;;;;18.62;61.92;100382.13;4927066;28;101077;-50
2022/09/14 08:49:39;;;;;;;1.97;1.20;;;;;;;18.70;61.90;100384.91;4928247;28;97270;-49
2022/09/14 08:52:05;;;;;;;1.40;1.00;;;;;;;18.80;61.87;100391.44;4932447;28;97157;-48
2022/09/14 08:54:36;;;;;;;2.77;1.20;;;;;;;18.88;61.84;100394.22;4930757;28;98423;-48
2022/09/14 08:57:14;;;;;;;3.83;1.47;;;;;;;18.98;61.75;100390.34;4923674;28;97197;-48
2022/09/14 09:00:02;;;;;;;2.03;1.00;;;;;;;19.07;61.61;100398.16;4939023;28;97070;-48
2022/09/14 09:02:39;;;;;;;2.00;0.90;;;;;;;19.17;61.56;100387.94;4934911;28;96992;-48
2022/09/14 09:05:14;;;;;;;3.00;1.10;;;;;;;19.26;61.25;100395.72;4942246;28;97686;-48
2022/09/14 09:07:59;;;;;;;3.83;0.90;;;;;;;19.35;61.05;100395.19;4945148;28;97372;-48
2022/09/14 09:10:26;;;;;;;3.03;0.83;;;;;;;19.45;60.92;100398.16;4941694;28;97180;-48
2022/09/14 09:12:58;;;;;;;3.50;1.13;;;;;;;19.51;60.77;100384.75;4946245;28;96971;-48
2022/09/14 09:15:48;;;;;;;3.63;1.37;;;;;;;19.57;60.52;100384.56;4940387;28;100578;-48
2022/09/14 09:18:16;;;;;;;1.90;1.00;;;;;;;19.59;60.48;100393.88;4944602;28;101988;-48
2022/09/14 09:20:47;;;;;;;2.10;0.80;;;;;;;19.65;60.64;100383.25;4946406;28;96886;-48
2022/09/14 09:23:15;;;;;;;1.77;0.77;;;;;;;19.69;60.63;100372.44;4946286;28;96757;-48
2022/09/14 09:25:51;;;;;;;3.37;0.90;;;;;;;19.77;60.37;100380.78;4945568;28;97613;-48
2022/09/14 09:28:17;;;;;;;6.20;1.20;;;;;;;19.81;60.38;100375.56;4943179;28;98227;-49
2022/09/14 09:30:44;;;;;;;1.47;0.80;;;;;;;19.87;60.30;100376.09;4948557;28;97164;-48
2022/09/14 09:33:20;;;;;;;4.67;0.90;;;;;;;19.92;60.09;100375.16;4947695;28;97210;-49
2022/09/14 09:35:45;;;;;;;4.80;1.17;;;;;;;19.91;60.27;100380.00;4943420;28;100331;-49
2022/09/14 09:38:16;;;;;;;3.00;0.80;;;;;;;19.95;60.11;100377.56;4944328;28;97316;-48
2022/09/14 09:40:46;;;;;;;4.07;1.17;;;;;;;19.97;59.98;100377.72;4938744;28;96856;-48
2022/09/14 09:43:18;;;;;;;10.33;1.43;;;;;;;20.05;60.16;100372.84;4944700;28;96917;-48
2022/09/14 09:45:49;;;;;;;2.57;0.90;;;;;;;20.11;60.15;100376.19;4946857;28;97508;-48
2022/09/14 09:48:18;;;;;;;2.07;0.90;;;;;;;20.17;60.16;100379.50;4947170;28;96838;-48
2022/09/14 09:50:50;;;;;;;1.73;0.90;;;;;;;20.22;59.79;100375.06;4946760;28;103918;-48
2022/09/14 09:53:19;;;;;;;3.10;1.10;;;;;;;20.22;59.80;100369.47;4947148;28;97218;-48
2022/09/14 09:55:48;;;;;;;3.47;1.10;;;;;;;20.23;59.85;100370.94;4944459;28;99722;-49
2022/09/14 09:58:26;;;;;;;1.43;0.70;;;;;;;20.20;59.57;100363.69;4940820;28;97683;-49
2022/09/14 10:01:00;;;;;;;0.80;0.80;;;;;;;20.22;59.96;100366.66;4943952;28;96967;-48
2022/09/14 10:03:29;;;;;;;2.17;0.80;;;;;;;20.29;60.04;100367.94;4946206;28;96828;-49
2022/09/14 10:06:01;;;;;;;5.40;1.40;;;;;;;20.33;59.89;100366.25;4943081;28;97350;-48
2022/09/14 10:08:27;;;;;;;5.17;1.57;;;;;;;20.39;60.00;100369.56;4937837;28;97188;-49
2022/09/14 10:10:52;;;;;;;1.90;1.10;;;;;;;20.46;59.59;100382.75;4945050;28;97169;-49
2022/09/14 10:13:27;;;;;;;1.70;1.00;;;;;;;20.51;59.54;100378.97;4944409;28;97478;-49
2022/09/14 10:16:04;;;;;;;3.30;1.10;;;;;;;20.56;59.25;100372.41;4949379;28;100416;-48
2022/09/14 10:18:29;;;;;;;2.77;1.10;;;;;;;20.58;59.34;100366.25;4946543;28;97150;-48
2022/09/14 10:20:57;;;;;;;1.67;0.70;;;;;;;20.57;58.90;100365.53;4947581;28;97041;-49
2022/09/14 10:23:25;;;;;;;5.70;1.10;;;;;;;20.61;58.96;100353.94;4945704;28;97361;-48
2022/09/14 10:26:13;;;;;;;1.67;1.00;;;;;;;20.61;58.98;100346.31;4943986;28;98041;-49
2022/09/14 10:28:46;;;;;;;2.53;0.93;;;;;;;20.60;58.03;100336.44;4940089;28;100944;-48
2022/09/14 10:31:16;;;;;;;3.50;0.93;;;;;;;20.55;58.08;100337.38;4944877;28;97299;-48
2022/09/14 10:33:43;;;;;;;1.40;1.10;;;;;;;20.62;58.14;100358.25;4945837;28;97573;-48
2022/09/14 10:36:11;;;;;;;2.93;0.90;;;;;;;20.66;58.09;100359.31;4944886;28;97127;-48
2022/09/14 10:38:39;;;;;;;3.37;1.10;;;;;;;20.74;58.13;100353.66;4940732;28;100201;-48
2022/09/14 10:41:11;;;;;;;3.27;0.80;;;;;;;20.78;57.87;100354.75;4944669;28;97436;-47
2022/09/14 10:43:59;;;;;;;1.30;0.80;;;;;;;20.81;56.45;100342.44;4945411;28;97653;-47
2022/09/14 10:46:32;;;;;;;3.10;0.70;;;;;;;20.86;57.00;100347.03;4943544;28;101781;-48
2022/09/14 10:49:13;;;;;;;1.10;0.80;;;;;;;20.95;56.69;100356.84;4931313;28;97192;-48
2022/09/14 10:51:45;;;;;;;1.47;0.70;;;;;;;21.02;57.19;100355.31;4941092;28;97305;-48
2022/09/14 10:54:25;;;;;;;2.70;1.00;;;;;;;21.06;56.37;100348.03;4930534;28;97728;-47
2022/09/14 10:57:16;;;;;;;2.40;0.60;;;;;;;21.07;56.55;100360.69;4937339;28;100445;-48
2022/09/14 10:59:47;;;;;;;2.27;0.90;;;;;;;21.09;56.43;100340.53;4930490;28;102534;-47
2022/09/14 11:02:28;;;;;;;2.90;1.17;;;;;;;21.13;56.06;100336.03;4945528;28;97495;-48
2022/09/14 11:05:13;;;;;;;2.83;0.70;;;;;;;21.17;56.04;100327.22;4945223;28;97262;-47
2022/09/14 11:07:38;;;;;;;2.00;0.90;;;;;;;21.20;56.58;100334.47;4939110;28;101657;-48
2022/09/14 11:10:22;;;;;;;3.60;1.10;;;;;;;21.26;55.74;100332.16;4940135;28;97798;-47
2022/09/14 11:13:31;;;;;;;1.00;0.57;;;;;;;21.26;55.53;100337.75;4944743;28;97102;-48
2022/09/14 11:16:05;;;;;;;2.80;1.53;;;;;;;21.27;56.39;100334.41;4936060;28;97641;-48
2022/09/14 11:18:50;;;;;;;3.07;0.80;;;;;;;21.28;55.88;100335.13;4932421;28;97351;-48
2022/09/14 11:21:41;;;;;;;4.70;1.23;;;;;;;21.29;55.92;100333.81;4929854;28;101822;-48
2022/09/14 11:24:20;;;;;;;3.10;1.20;;;;;;;21.33;55.80;100320.16;4937182;28;96847;-47
2022/09/14 11:27:28;;;;;;;1.93;0.70;;;;;;;21.28;54.90;100323.94;4926148;28;97085;-48
2022/09/14 11:30:07;;;;;;;3.80;0.80;;;;;;;21.32;55.54;100321.47;4940375;28;100439;-48
2022/09/14 11:32:42;;;;;;;1.87;0.87;;;;;;;21.37;55.90;100314.88;4942353;28;100913;-48
2022/09/14 11:35:23;;;;;;;2.80;0.90;;;;;;;21.38;55.75;100319.19;4936660;28;97272;-47
2022/09/14 11:38:00;;;;;;;2.00;0.70;;;;;;;21.38;55.15;100321.97;4933602;28;97636;-48